Terminal Aerodrome Forecast
Issued by NWS Bismarck, ND

Home | Current Version | Previous Version | Text Only | Print | Product List | Glossary Off
Versions: 1 2 3 4 5 6 7 8 9 10 11 12 13 14 15 16 17 18 19 20 21 22 23 24 25

000
FTUS43 KBIS 272200 AAA
TAFISN
TAF AMD
KISN 272202Z 2722/2818 28017G26KT 5SM BR OVC015
     FM280000 30021G31KT 4SM -SNRA OVC015
     FM280300 31020G30KT P6SM OVC015
     FM280600 31015KT P6SM OVC007=

USA.gov is the U.S. government's official web portal to all federal, state and local government web resources and services.